createdAt,value
2023-03-01T00:00:52.605Z,-0.20
2023-03-01T00:03:19.456Z,-0.10
2023-03-01T00:05:48.540Z,-0.20
2023-03-01T00:08:15.369Z,-0.20
2023-03-01T00:10:42.188Z,-0.20
2023-03-01T00:13:09.103Z,-0.20
2023-03-01T00:15:40.173Z,-0.20
2023-03-01T00:18:07.481Z,-0.30
2023-03-01T00:20:34.358Z,-0.30
2023-03-01T00:23:02.655Z,-0.30
2023-03-01T00:25:29.550Z,-0.30
2023-03-01T00:27:56.411Z,-0.40
2023-03-01T00:30:23.587Z,-0.50
2023-03-01T00:32:50.367Z,-0.60
2023-03-01T00:35:17.732Z,-0.60
2023-03-01T00:37:44.730Z,-0.70
2023-03-01T00:40:17.611Z,-0.70
2023-03-01T00:42:44.556Z,-0.70
2023-03-01T00:45:12.004Z,-0.70
2023-03-01T00:47:38.809Z,-0.70
2023-03-01T00:50:06.636Z,-0.60
2023-03-01T00:52:33.666Z,-0.80
2023-03-01T00:55:00.866Z,-0.80
2023-03-01T00:57:29.085Z,-0.80
2023-03-01T00:59:56.217Z,-0.80
2023-03-01T01:02:23.555Z,-0.70
2023-03-01T01:04:50.635Z,-0.80
2023-03-01T01:07:17.841Z,-0.80
2023-03-01T01:09:45.146Z,-0.80
2023-03-01T01:12:11.939Z,-0.90
2023-03-01T01:14:40.553Z,-0.90
2023-03-01T01:17:07.407Z,-0.90
2023-03-01T01:19:34.501Z,-0.90
2023-03-01T01:22:01.503Z,-0.90
2023-03-01T01:24:28.810Z,-0.90
2023-03-01T01:26:55.686Z,-0.80
2023-03-01T01:29:22.952Z,-0.80
2023-03-01T01:31:51.163Z,-0.80
2023-03-01T01:34:20.619Z,-0.80
2023-03-01T01:36:49.768Z,-0.80
2023-03-01T01:39:16.638Z,-0.80
2023-03-01T01:41:43.940Z,-0.70
2023-03-01T01:44:17.743Z,-0.70
2023-03-01T01:46:49.864Z,-0.70
2023-03-01T01:49:25.281Z,-0.80
2023-03-01T01:51:56.933Z,-0.80
2023-03-01T01:54:28.294Z,-0.80
2023-03-01T01:56:59.843Z,-0.70
2023-03-01T01:59:28.725Z,-0.70
2023-03-01T02:01:56.026Z,-0.70
2023-03-01T02:04:24.513Z,-0.70
2023-03-01T02:06:58.171Z,-0.80
2023-03-01T02:09:25.893Z,-0.80
2023-03-01T02:11:54.381Z,-0.90
2023-03-01T02:14:21.622Z,-0.90
2023-03-01T02:16:48.884Z,-1.00
2023-03-01T02:19:37.211Z,-1.00
2023-03-01T02:22:12.412Z,-1.00
2023-03-01T02:24:53.857Z,-1.10
2023-03-01T02:27:27.050Z,-1.10
2023-03-01T02:29:56.864Z,-1.10
2023-03-01T02:32:25.959Z,-1.00
2023-03-01T02:34:54.309Z,-1.10
2023-03-01T02:37:25.701Z,-1.10
2023-03-01T02:39:59.144Z,-1.10
2023-03-01T02:42:32.050Z,-1.10
2023-03-01T02:45:00.460Z,-1.20
2023-03-01T02:47:27.279Z,-1.20
2023-03-01T02:49:55.681Z,-1.20
2023-03-01T02:52:35.044Z,-1.30
2023-03-01T02:55:06.453Z,-1.30
2023-03-01T02:57:36.020Z,-1.30
2023-03-01T03:00:08.170Z,-1.40
2023-03-01T03:02:38.903Z,-1.40
2023-03-01T03:05:09.755Z,-1.40
2023-03-01T03:07:37.754Z,-1.40
2023-03-01T03:10:10.294Z,-1.40
2023-03-01T03:12:37.071Z,-1.40
2023-03-01T03:15:09.862Z,-1.40
2023-03-01T03:17:37.632Z,-1.40
2023-03-01T03:20:05.931Z,-1.40
2023-03-01T03:22:34.957Z,-1.40
2023-03-01T03:25:02.257Z,-1.50
2023-03-01T03:27:29.846Z,-1.50
2023-03-01T03:29:57.040Z,-1.50
2023-03-01T03:32:25.350Z,-1.50
2023-03-01T03:34:52.515Z,-1.60
2023-03-01T03:37:37.959Z,-1.70
2023-03-01T03:40:16.657Z,-1.60
2023-03-01T03:42:43.581Z,-1.60
2023-03-01T03:45:10.840Z,-1.70
2023-03-01T03:47:39.200Z,-1.60
2023-03-01T03:50:07.038Z,-1.60
2023-03-01T03:52:33.866Z,-1.60
2023-03-01T03:55:00.985Z,-1.60
2023-03-01T03:57:27.834Z,-1.60
2023-03-01T03:59:54.622Z,-1.60
2023-03-01T04:02:23.082Z,-1.70
2023-03-01T04:04:51.486Z,-1.80
2023-03-01T04:07:18.290Z,-1.80
2023-03-01T04:09:45.412Z,-1.90
2023-03-01T04:12:12.281Z,-1.90
2023-03-01T04:14:39.498Z,-1.90
2023-03-01T04:17:06.326Z,-1.90
2023-03-01T04:19:37.240Z,-1.90
2023-03-01T04:22:10.207Z,-1.90
2023-03-01T04:24:37.299Z,-1.90
2023-03-01T04:27:04.208Z,-1.90
2023-03-01T04:29:31.511Z,-1.80
2023-03-01T04:31:58.582Z,-1.80
2023-03-01T04:34:28.110Z,-1.80
2023-03-01T04:36:55.082Z,-1.90
2023-03-01T04:39:23.714Z,-1.80
2023-03-01T04:41:50.514Z,-1.80
2023-03-01T04:44:17.543Z,-1.90
2023-03-01T04:46:44.382Z,-1.90
2023-03-01T04:49:11.538Z,-1.90
2023-03-01T04:51:38.661Z,-1.90
2023-03-01T04:54:09.972Z,-1.90
2023-03-01T04:56:38.107Z,-2.00
2023-03-01T04:59:06.678Z,-2.10
2023-03-01T05:01:33.471Z,-2.00
2023-03-01T05:04:04.083Z,-2.00
2023-03-01T05:06:31.259Z,-2.10
2023-03-01T05:08:59.202Z,-2.10
2023-03-01T05:11:26.047Z,-2.00
2023-03-01T05:13:55.937Z,-2.10
2023-03-01T05:16:23.112Z,-2.10
2023-03-01T05:18:52.025Z,-2.10
2023-03-01T05:21:19.019Z,-2.10
2023-03-01T05:23:48.065Z,-2.10
2023-03-01T05:26:27.993Z,-2.10
2023-03-01T05:29:00.867Z,-2.10
2023-03-01T05:31:28.059Z,-2.20
2023-03-01T05:33:54.862Z,-2.20
2023-03-01T05:36:21.837Z,-2.20
2023-03-01T05:38:48.652Z,-2.20
2023-03-01T05:41:17.769Z,-2.20
2023-03-01T05:43:45.909Z,-2.30
2023-03-01T05:46:16.652Z,-2.30
2023-03-01T05:48:43.705Z,-2.30
2023-03-01T05:51:11.142Z,-2.30
2023-03-01T05:53:37.922Z,-2.30
2023-03-01T05:56:06.023Z,-2.30
2023-03-01T05:58:33.256Z,-2.30
2023-03-01T06:01:00.505Z,-2.30
2023-03-01T06:03:29.002Z,-2.30
2023-03-01T06:05:57.850Z,-2.20
2023-03-01T06:08:27.644Z,-2.20
2023-03-01T06:10:55.282Z,-2.20
2023-03-01T06:13:22.215Z,-2.20
2023-03-01T06:15:49.385Z,-2.20
2023-03-01T06:18:16.365Z,-2.20
2023-03-01T06:20:44.609Z,-2.20
2023-03-01T06:23:11.456Z,-2.10
2023-03-01T06:25:38.906Z,-2.20
2023-03-01T06:28:05.749Z,-2.00
2023-03-01T06:30:33.305Z,-2.10
2023-03-01T06:33:02.304Z,-2.00
2023-03-01T06:35:30.836Z,-1.90
2023-03-01T06:38:00.668Z,-1.80
2023-03-01T06:40:28.035Z,-1.80
2023-03-01T06:42:55.182Z,-1.80
2023-03-01T06:45:22.558Z,-1.80
2023-03-01T06:47:49.393Z,-1.80
2023-03-01T06:50:18.522Z,-1.80
2023-03-01T06:55:15.109Z,-1.80
2023-03-01T06:57:41.955Z,-1.70
2023-03-01T07:00:10.156Z,-1.60
2023-03-01T07:02:36.983Z,-1.60
2023-03-01T07:05:04.591Z,-1.40
2023-03-01T07:07:31.466Z,-1.50
2023-03-01T07:09:58.680Z,-1.40
2023-03-01T07:12:26.809Z,-1.40
2023-03-01T07:14:53.989Z,-1.40
2023-03-01T07:17:20.952Z,-1.30
2023-03-01T07:19:48.144Z,-1.20
2023-03-01T07:22:14.993Z,-1.20
2023-03-01T07:24:42.411Z,-1.20
2023-03-01T07:27:09.257Z,-1.10
2023-03-01T07:29:37.981Z,-1.00
2023-03-01T07:32:05.763Z,-0.90
2023-03-01T07:34:33.308Z,-0.90
2023-03-01T07:37:00.128Z,-0.80
2023-03-01T07:39:27.435Z,-0.80
2023-03-01T07:41:54.232Z,-0.60
2023-03-01T07:44:21.495Z,-0.50
2023-03-01T07:46:49.591Z,-0.50
2023-03-01T07:49:16.766Z,-0.40
2023-03-01T07:51:44.491Z,-0.30
2023-03-01T07:54:11.671Z,-0.20
2023-03-01T07:56:38.530Z,-0.10
2023-03-01T07:59:05.639Z,0.00
2023-03-01T08:01:32.457Z,0.00
2023-03-01T08:04:00.977Z,0.10
2023-03-01T08:06:27.996Z,0.20
2023-03-01T08:08:57.947Z,0.30
2023-03-01T08:11:24.812Z,0.40
2023-03-01T08:13:52.703Z,0.50
2023-03-01T08:16:21.499Z,0.60
2023-03-01T08:18:48.673Z,0.70
2023-03-01T08:21:18.200Z,0.90
2023-03-01T08:23:45.967Z,1.00
2023-03-01T08:26:15.253Z,1.10
2023-03-01T08:28:43.314Z,1.20
2023-03-01T08:31:18.477Z,1.40
2023-03-01T08:33:51.852Z,1.40
2023-03-01T08:36:21.822Z,1.60
2023-03-01T08:38:49.091Z,1.70
2023-03-01T08:41:15.871Z,1.80
2023-03-01T08:43:42.797Z,1.80
2023-03-01T08:46:10.004Z,2.00
2023-03-01T08:48:37.206Z,2.10
2023-03-01T08:51:11.044Z,2.10
2023-03-01T08:53:40.094Z,2.20
2023-03-01T08:56:07.996Z,2.20
2023-03-01T08:58:35.385Z,2.30
2023-03-01T09:01:07.250Z,2.40
2023-03-01T09:03:34.182Z,2.50
2023-03-01T09:06:02.716Z,2.50
2023-03-01T09:08:30.250Z,2.60
2023-03-01T09:10:58.539Z,2.70
2023-03-01T09:13:26.149Z,2.80
2023-03-01T09:15:53.449Z,2.90
2023-03-01T09:18:20.642Z,3.00
2023-03-01T09:20:47.535Z,3.10
2023-03-01T09:23:14.517Z,3.10
2023-03-01T09:25:41.346Z,3.20
2023-03-01T09:28:12.005Z,3.30
2023-03-01T09:30:45.045Z,3.40
2023-03-01T09:33:15.527Z,3.40
2023-03-01T09:35:47.002Z,3.50
2023-03-01T09:38:14.712Z,3.50
2023-03-01T09:40:46.546Z,3.60
2023-03-01T09:43:22.941Z,3.70
2023-03-01T09:45:51.806Z,3.70
2023-03-01T09:48:23.487Z,3.70
2023-03-01T09:50:51.484Z,3.70
2023-03-01T09:53:20.758Z,3.80
2023-03-01T09:55:52.842Z,3.90
2023-03-01T09:58:42.217Z,3.90
2023-03-01T10:01:29.408Z,4.00
2023-03-01T10:04:10.957Z,4.00
2023-03-01T10:06:38.419Z,4.10
2023-03-01T10:09:11.644Z,4.20
2023-03-01T10:11:41.571Z,4.30
2023-03-01T10:14:29.796Z,4.30
2023-03-01T10:17:03.585Z,4.30
2023-03-01T10:19:35.024Z,4.30
2023-03-01T10:22:08.797Z,4.30
2023-03-01T10:24:37.505Z,4.30
2023-03-01T10:27:10.043Z,4.40
2023-03-01T10:29:44.856Z,4.40
2023-03-01T10:32:12.326Z,4.60
2023-03-01T10:34:39.626Z,4.80
2023-03-01T10:37:12.519Z,5.20
2023-03-01T10:39:56.469Z,5.60
2023-03-01T10:42:28.521Z,6.30
2023-03-01T10:44:57.439Z,6.80
2023-03-01T10:47:26.473Z,7.30
2023-03-01T10:49:58.874Z,8.00
2023-03-01T10:52:29.289Z,8.60
2023-03-01T10:54:58.549Z,8.80
2023-03-01T10:57:37.144Z,9.20
2023-03-01T11:00:22.390Z,9.30
2023-03-01T11:02:50.986Z,9.60
2023-03-01T11:05:22.160Z,9.50
2023-03-01T11:07:49.833Z,9.60
2023-03-01T11:10:20.210Z,9.60
2023-03-01T11:12:47.039Z,9.50
2023-03-01T11:15:25.626Z,9.30
2023-03-01T11:17:58.843Z,9.00
2023-03-01T11:20:36.683Z,9.00
2023-03-01T11:23:07.586Z,8.90
2023-03-01T11:25:38.204Z,8.80
2023-03-01T11:28:06.901Z,8.60
2023-03-01T11:30:39.735Z,8.40
2023-03-01T11:33:17.618Z,8.60
2023-03-01T11:35:51.690Z,8.80
2023-03-01T11:38:23.174Z,9.00
2023-03-01T11:40:56.220Z,9.10
2023-03-01T11:43:30.473Z,9.70
2023-03-01T11:46:26.390Z,10.10
2023-03-01T11:49:01.801Z,10.80
2023-03-01T11:51:44.511Z,11.70
2023-03-01T11:54:22.212Z,12.90
2023-03-01T11:56:55.796Z,13.70
2023-03-01T11:59:52.235Z,14.30
2023-03-01T12:02:52.550Z,15.20
2023-03-01T12:05:43.225Z,15.90
2023-03-01T12:08:16.024Z,17.00
2023-03-01T12:10:50.853Z,17.90
2023-03-01T12:13:50.234Z,18.40
2023-03-01T12:16:39.076Z,18.80
2023-03-01T12:19:50.085Z,19.40
2023-03-01T12:22:29.807Z,18.90
2023-03-01T12:25:21.654Z,19.10
2023-03-01T12:28:05.284Z,20.00
2023-03-01T12:30:42.235Z,20.60
2023-03-01T12:33:23.610Z,21.30
2023-03-01T12:36:25.353Z,21.90
2023-03-01T12:39:05.056Z,22.20
2023-03-01T12:41:48.274Z,21.50
2023-03-01T12:44:39.603Z,20.50
2023-03-01T12:47:20.139Z,20.60
2023-03-01T12:49:52.111Z,20.30
2023-03-01T12:52:25.402Z,20.20
2023-03-01T12:54:55.065Z,19.80
2023-03-01T12:57:38.342Z,20.00
2023-03-01T13:00:22.923Z,19.80
2023-03-01T13:02:55.894Z,19.40
2023-03-01T13:05:35.440Z,19.90
2023-03-01T13:08:11.755Z,20.20
2023-03-01T13:10:48.669Z,20.00
2023-03-01T13:13:22.343Z,19.90
2023-03-01T13:15:52.397Z,20.30
2023-03-01T13:18:31.885Z,20.40
2023-03-01T13:21:04.032Z,20.60
2023-03-01T13:23:35.478Z,20.90
2023-03-01T13:26:05.910Z,21.00
2023-03-01T13:28:47.392Z,20.60
2023-03-01T13:32:01.077Z,20.60
2023-03-01T13:34:54.931Z,20.30
2023-03-01T13:37:26.936Z,19.50
2023-03-01T13:39:55.184Z,19.30
2023-03-01T13:42:41.681Z,18.70
2023-03-01T13:45:22.399Z,18.30
2023-03-01T13:47:54.805Z,17.90
2023-03-01T13:50:25.582Z,17.70
2023-03-01T13:52:58.613Z,17.40
2023-03-01T13:55:35.990Z,17.00
2023-03-01T13:58:05.673Z,17.20
2023-03-01T14:00:37.547Z,17.40
2023-03-01T14:03:12.699Z,17.10
2023-03-01T14:05:41.098Z,17.10
2023-03-01T14:08:22.349Z,17.30
2023-03-01T14:11:08.447Z,17.40
2023-03-01T14:13:49.655Z,17.30
2023-03-01T14:16:26.785Z,17.50
2023-03-01T14:19:05.147Z,17.50
2023-03-01T14:21:32.357Z,17.50
2023-03-01T14:24:00.085Z,17.80
2023-03-01T14:26:28.739Z,18.50
2023-03-01T14:28:56.461Z,18.30
2023-03-01T14:31:40.992Z,18.00
2023-03-01T14:34:20.898Z,18.00
2023-03-01T14:36:47.917Z,18.30
2023-03-01T14:39:19.249Z,18.40
2023-03-01T14:41:47.688Z,18.60
2023-03-01T14:44:19.495Z,19.00
2023-03-01T14:46:48.083Z,19.40
2023-03-01T14:49:18.306Z,19.80
2023-03-01T14:51:54.581Z,20.40
2023-03-01T14:54:25.623Z,20.60
2023-03-01T14:56:55.217Z,20.50
2023-03-01T14:59:24.520Z,20.00
2023-03-01T15:01:52.774Z,18.50
2023-03-01T15:04:21.191Z,17.50
2023-03-01T15:06:51.842Z,17.30
2023-03-01T15:09:19.703Z,17.60
2023-03-01T15:11:46.838Z,17.50
2023-03-01T15:14:44.093Z,17.60
2023-03-01T15:17:34.071Z,17.70
2023-03-01T15:20:03.268Z,17.80
2023-03-01T15:22:30.593Z,17.10
2023-03-01T15:24:57.800Z,16.50
2023-03-01T15:27:26.783Z,16.40
2023-03-01T15:29:58.919Z,16.30
2023-03-01T15:32:29.042Z,15.70
2023-03-01T15:34:56.315Z,14.60
2023-03-01T15:37:40.830Z,13.70
2023-03-01T15:40:21.348Z,12.90
2023-03-01T15:42:48.772Z,12.20
2023-03-01T15:45:25.712Z,11.40
2023-03-01T15:47:54.313Z,10.70
2023-03-01T15:50:23.811Z,10.30
2023-03-01T15:52:52.035Z,10.00
2023-03-01T15:55:21.181Z,9.80
2023-03-01T15:57:49.167Z,9.50
2023-03-01T16:00:18.435Z,9.20
2023-03-01T16:02:47.077Z,9.00
2023-03-01T16:05:20.706Z,8.80
2023-03-01T16:07:47.728Z,8.60
2023-03-01T16:10:14.755Z,8.50
2023-03-01T16:12:42.013Z,8.30
2023-03-01T16:15:17.373Z,8.20
2023-03-01T16:17:44.162Z,8.10
2023-03-01T16:20:19.692Z,7.90
2023-03-01T16:22:50.680Z,7.80
2023-03-01T16:25:19.731Z,7.70
2023-03-01T16:27:48.337Z,7.70
2023-03-01T16:30:16.984Z,7.50
2023-03-01T16:32:46.286Z,7.40
2023-03-01T16:35:16.641Z,7.30
2023-03-01T16:37:44.193Z,7.30
2023-03-01T16:40:19.075Z,7.20
2023-03-01T16:42:46.276Z,7.20
2023-03-01T16:45:23.758Z,7.00
2023-03-01T16:47:55.142Z,6.90
2023-03-01T16:50:24.085Z,6.80
2023-03-01T16:52:51.271Z,6.70
2023-03-01T16:55:18.351Z,6.70
2023-03-01T16:57:46.032Z,6.60
2023-03-01T17:00:14.424Z,6.50
2023-03-01T17:02:42.612Z,6.40
2023-03-01T17:05:12.789Z,6.40
2023-03-01T17:07:41.675Z,6.30
2023-03-01T17:10:11.417Z,6.20
2023-03-01T17:12:39.519Z,6.10
2023-03-01T17:15:07.581Z,6.00
2023-03-01T17:17:36.205Z,5.90
2023-03-01T17:20:04.932Z,5.90
2023-03-01T17:22:31.855Z,5.90
2023-03-01T17:25:00.045Z,5.70
2023-03-01T17:27:27.016Z,5.60
2023-03-01T17:29:53.990Z,5.60
2023-03-01T17:32:20.915Z,5.50
2023-03-01T17:34:47.954Z,5.50
2023-03-01T17:37:14.896Z,5.40
2023-03-01T17:39:41.735Z,5.30
2023-03-01T17:42:10.246Z,5.30
2023-03-01T17:44:37.149Z,5.20
2023-03-01T17:47:05.213Z,5.20
2023-03-01T17:49:32.452Z,5.10
2023-03-01T17:51:59.377Z,5.10
2023-03-01T17:54:26.454Z,5.10
2023-03-01T17:56:54.034Z,5.00
2023-03-01T17:59:22.265Z,5.00
2023-03-01T18:01:49.597Z,5.00
2023-03-01T18:04:18.402Z,5.00
2023-03-01T18:06:47.927Z,4.90
2023-03-01T18:09:14.836Z,4.90
2023-03-01T18:11:42.180Z,4.80
2023-03-01T18:14:09.133Z,4.80
2023-03-01T18:16:39.764Z,4.80
2023-03-01T18:19:06.640Z,4.70
2023-03-01T18:21:33.852Z,4.70
2023-03-01T18:24:01.564Z,4.70
2023-03-01T18:26:30.157Z,4.60
2023-03-01T18:29:01.500Z,4.60
2023-03-01T18:31:33.608Z,4.50
2023-03-01T18:34:02.089Z,4.50
2023-03-01T18:36:31.492Z,4.50
2023-03-01T18:38:58.747Z,4.50
2023-03-01T18:41:27.419Z,4.50
2023-03-01T18:43:55.832Z,4.50
2023-03-01T18:46:23.056Z,4.50
2023-03-01T18:48:51.417Z,4.40
2023-03-01T18:51:23.054Z,4.40
2023-03-01T18:53:49.954Z,4.40
2023-03-01T18:56:16.863Z,4.30
2023-03-01T18:58:44.110Z,4.20
2023-03-01T19:01:15.144Z,4.10
2023-03-01T19:03:42.350Z,4.00
2023-03-01T19:06:09.544Z,3.90
2023-03-01T19:08:38.429Z,3.80
2023-03-01T19:11:07.094Z,3.80
2023-03-01T19:13:37.313Z,3.80
2023-03-01T19:16:06.356Z,3.70
2023-03-01T19:18:33.568Z,3.70
2023-03-01T19:21:04.065Z,3.70
2023-03-01T19:23:34.829Z,3.70
2023-03-01T19:26:06.039Z,3.70
2023-03-01T19:28:33.535Z,3.60
2023-03-01T19:31:02.866Z,3.60
2023-03-01T19:33:30.576Z,3.50
2023-03-01T19:35:57.824Z,3.40
2023-03-01T19:38:25.342Z,3.40
2023-03-01T19:40:52.391Z,3.30
2023-03-01T19:43:20.881Z,3.30
2023-03-01T19:45:51.670Z,3.30
2023-03-01T19:48:18.528Z,3.30
2023-03-01T19:50:45.599Z,3.20
2023-03-01T19:53:12.764Z,3.20
2023-03-01T19:55:39.738Z,3.20
2023-03-01T19:58:07.717Z,3.20
2023-03-01T20:00:36.627Z,3.10
2023-03-01T20:03:04.076Z,3.00
2023-03-01T20:05:33.584Z,3.00
2023-03-01T20:08:00.497Z,2.90
2023-03-01T20:10:29.407Z,2.80
2023-03-01T20:12:56.324Z,2.70
2023-03-01T20:15:23.208Z,2.70
2023-03-01T20:17:51.483Z,2.70
2023-03-01T20:20:18.933Z,2.60
2023-03-01T20:22:45.926Z,2.60
2023-03-01T20:25:12.831Z,2.50
2023-03-01T20:27:39.662Z,2.60
2023-03-01T20:30:08.259Z,2.50
2023-03-01T20:32:35.552Z,2.50
2023-03-01T20:35:04.374Z,2.50
2023-03-01T20:37:31.417Z,2.60
2023-03-01T20:39:58.571Z,2.60
2023-03-01T20:42:25.436Z,2.50
2023-03-01T20:44:52.310Z,2.60
2023-03-01T20:47:21.009Z,2.50
2023-03-01T20:49:50.526Z,2.50
2023-03-01T20:52:19.144Z,2.40
2023-03-01T20:54:46.887Z,2.40
2023-03-01T20:57:13.771Z,2.40
2023-03-01T20:59:40.935Z,2.30
2023-03-01T21:02:09.568Z,2.30
2023-03-01T21:04:36.382Z,2.30
2023-03-01T21:07:04.317Z,2.30
2023-03-01T21:09:33.085Z,2.30
2023-03-01T21:12:00.174Z,2.30
2023-03-01T21:14:27.592Z,2.30
2023-03-01T21:16:54.601Z,2.20
2023-03-01T21:19:22.168Z,2.20
2023-03-01T21:21:49.717Z,2.20
2023-03-01T21:24:17.001Z,2.10
2023-03-01T21:26:45.246Z,2.10
2023-03-01T21:29:12.508Z,2.10
2023-03-01T21:31:39.406Z,2.10
2023-03-01T21:34:07.219Z,2.10
2023-03-01T21:36:35.353Z,2.10
2023-03-01T21:39:03.310Z,2.10
2023-03-01T21:41:32.623Z,2.00
2023-03-01T21:44:03.329Z,2.00
2023-03-01T21:46:32.246Z,1.90
2023-03-01T21:48:59.495Z,1.90
2023-03-01T21:51:27.455Z,1.90
2023-03-01T21:53:55.935Z,1.80
2023-03-01T21:56:25.025Z,1.80
2023-03-01T21:58:52.868Z,1.80
2023-03-01T22:01:25.277Z,1.80
2023-03-01T22:03:52.502Z,1.80
2023-03-01T22:06:22.826Z,1.80
2023-03-01T22:08:51.720Z,1.70
2023-03-01T22:11:19.912Z,1.60
2023-03-01T22:13:49.670Z,1.50
2023-03-01T22:16:16.785Z,1.60
2023-03-01T22:18:45.594Z,1.50
2023-03-01T22:21:12.844Z,1.50
2023-03-01T22:23:40.411Z,1.40
2023-03-01T22:26:09.488Z,1.40
2023-03-01T22:28:36.355Z,1.40
2023-03-01T22:31:04.204Z,1.40
2023-03-01T22:33:31.910Z,1.30
2023-03-01T22:36:00.481Z,1.30
2023-03-01T22:38:27.729Z,1.20
2023-03-01T22:40:58.413Z,1.10
2023-03-01T22:43:25.440Z,1.10
2023-03-01T22:45:52.421Z,1.10
2023-03-01T22:48:19.744Z,1.10
2023-03-01T22:50:48.282Z,1.10
2023-03-01T22:53:16.959Z,1.10
2023-03-01T22:55:44.992Z,1.20
2023-03-01T22:58:11.900Z,1.20
2023-03-01T23:00:39.082Z,1.20
2023-03-01T23:03:06.000Z,1.20
2023-03-01T23:05:33.445Z,1.20
2023-03-01T23:08:00.427Z,1.20
2023-03-01T23:10:29.035Z,1.20
2023-03-01T23:12:56.134Z,1.10
2023-03-01T23:15:23.736Z,1.00
2023-03-01T23:17:50.547Z,1.00
2023-03-01T23:20:17.995Z,0.90
2023-03-01T23:22:44.943Z,1.00
2023-03-01T23:25:15.044Z,1.00
2023-03-01T23:27:43.353Z,1.00
2023-03-01T23:30:11.447Z,0.90
2023-03-01T23:32:40.537Z,0.80
2023-03-01T23:35:09.992Z,0.70
2023-03-01T23:37:37.773Z,0.70
2023-03-01T23:40:06.905Z,0.70
2023-03-01T23:42:34.237Z,0.60
2023-03-01T23:45:02.728Z,0.70
2023-03-01T23:47:29.592Z,0.70
2023-03-01T23:49:57.370Z,0.60
2023-03-01T23:52:24.400Z,0.60
2023-03-01T23:54:51.932Z,0.70
2023-03-01T23:57:19.368Z,0.60
2023-03-01T23:59:46.369Z,0.60
